Time;durP1;ratioP1;P1;durP2;ratioP2;P2;SDS_P1;SDS_P2;PMS_P1;PMS_P2;Temp;Humidity;BMP_temperature;BMP_pressure;BME280_temperature;BME280_humidity;BME280_pressure;Samples;Min_cycle;Max_cycle;Signal;HPM_P1;HPM_P2
2023/05/17 00:06:54;;;;;;;10.10;4.18;;;;;;;7.70;96.51;102424.50;5143537;23;20045;-49
2023/05/17 00:09:19;;;;;;;10.35;4.85;;;;;;;7.69;96.72;102427.91;5036267;28;20035;-48
2023/05/17 00:11:44;;;;;;;9.23;4.32;;;;;;;7.67;97.03;102437.28;5069179;23;20183;-47
2023/05/17 00:14:10;;;;;;;11.00;4.75;;;;;;;7.62;97.02;102436.13;5124923;23;20466;-77
2023/05/17 00:19:01;;;;;;;12.18;4.30;;;;;;;7.53;97.40;102440.72;5114271;22;20397;-49
2023/05/17 00:21:26;;;;;;;8.77;4.25;;;;;;;7.46;97.61;102440.34;5075118;22;20061;-77
2023/05/17 00:23:51;;;;;;;13.75;4.53;;;;;;;7.42;97.97;102440.06;5069705;22;20562;-55
2023/05/17 00:26:16;;;;;;;11.38;4.53;;;;;;;7.40;98.46;102439.06;5040101;23;20053;-77
2023/05/17 00:31:19;;;;;;;14.45;4.70;;;;;;;7.33;99.26;102435.22;5025561;23;20038;-56
2023/05/17 00:33:46;;;;;;;10.48;4.63;;;;;;;7.30;99.40;102437.63;5040647;23;20072;-77
2023/05/17 00:38:52;;;;;;;11.32;4.45;;;;;;;7.26;99.24;102438.22;5183085;22;20052;-55
2023/05/17 00:41:17;;;;;;;13.50;5.00;;;;;;;7.27;99.84;102442.56;5157969;23;20508;-55
2023/05/17 00:43:43;;;;;;;12.13;4.28;;;;;;;7.28;99.79;102436.59;5040679;23;20033;-70
2023/05/17 00:46:08;;;;;;;14.18;4.60;;;;;;;7.30;99.57;102438.50;5039032;22;20215;-51
2023/05/17 00:48:33;;;;;;;9.25;4.38;;;;;;;7.31;99.91;102429.94;5070108;22;20056;-50
2023/05/17 00:50:59;;;;;;;12.85;4.60;;;;;;;7.34;100.00;102425.72;5041891;28;20021;-50
2023/05/17 00:53:25;;;;;;;11.43;4.88;;;;;;;7.36;99.93;102435.41;5131645;23;20060;-54
2023/05/17 00:55:51;;;;;;;10.15;4.45;;;;;;;7.37;99.58;102444.97;5050517;23;20302;-70
2023/05/17 00:58:16;;;;;;;12.50;4.60;;;;;;;7.35;99.66;102440.50;5047662;23;20084;-55
2023/05/17 01:00:42;;;;;;;12.43;4.65;;;;;;;7.34;99.79;102431.78;5041097;23;20095;-77
2023/05/17 01:03:07;;;;;;;9.32;4.70;;;;;;;7.31;99.94;102423.81;5038742;23;20080;-55
2023/05/17 01:05:32;;;;;;;12.45;4.32;;;;;;;7.31;100.00;102426.41;5097953;22;20627;-77
2023/05/17 01:07:58;;;;;;;13.30;4.78;;;;;;;7.32;99.80;102433.41;4963687;23;20567;-55
2023/05/17 01:10:48;;;;;;;11.07;4.70;;;;;;;7.37;99.54;102444.06;5039001;23;20069;-55
2023/05/17 01:15:49;;;;;;;11.15;4.60;;;;;;;7.38;99.26;102432.91;5051287;22;20054;-55
2023/05/17 01:18:30;;;;;;;10.77;4.28;;;;;;;7.39;99.40;102426.91;5075566;22;20054;-78
2023/05/17 01:28:40;;;;;;;13.93;4.90;;;;;;;7.39;98.68;102438.19;4931623;22;20045;-71
2023/05/17 01:33:35;;;;;;;11.70;4.38;;;;;;;7.33;98.70;102453.34;5003400;23;20061;-76
2023/05/17 01:36:00;;;;;;;13.50;4.38;;;;;;;7.26;98.72;102441.69;5065922;23;20029;-55
2023/05/17 01:38:26;;;;;;;9.23;4.40;;;;;;;7.20;99.31;102436.13;5265466;22;20463;-72
2023/05/17 01:46:01;;;;;;;13.20;4.50;;;;;;;7.11;100.00;102436.44;5125537;23;20052;-77
2023/05/17 01:48:35;;;;;;;10.38;4.55;;;;;;;7.14;100.00;102433.16;5040054;28;20029;-77
2023/05/17 01:51:02;;;;;;;14.35;4.47;;;;;;;7.12;100.00;102435.63;5140249;22;20057;-71
2023/05/17 01:53:38;;;;;;;14.45;4.75;;;;;;;7.10;100.00;102434.66;5057063;22;20199;-55
2023/05/17 01:56:07;;;;;;;14.63;4.75;;;;;;;7.08;100.00;102432.75;5038904;22;20057;-48
2023/05/17 02:01:03;;;;;;;12.73;5.28;;;;;;;6.99;100.00;102440.84;5187129;22;20050;-77
2023/05/17 02:03:28;;;;;;;12.90;4.63;;;;;;;6.95;100.00;102433.66;5048582;23;20535;-47
2023/05/17 02:05:53;;;;;;;13.45;4.85;;;;;;;6.93;100.00;102436.16;5187304;22;20053;-71
2023/05/17 02:08:19;;;;;;;12.05;4.75;;;;;;;6.94;100.00;102437.06;5198367;22;20049;-77
2023/05/17 02:10:44;;;;;;;15.30;5.18;;;;;;;6.94;100.00;102439.66;5058264;23;20119;-54
2023/05/17 02:13:10;;;;;;;15.88;4.85;;;;;;;6.92;100.00;102438.66;5039735;23;20503;-77
2023/05/17 02:15:35;;;;;;;14.05;4.97;;;;;;;6.88;100.00;102428.88;5142597;22;20052;-55
2023/05/17 02:20:30;;;;;;;13.18;5.00;;;;;;;6.92;100.00;102433.47;5055985;22;20054;-55
2023/05/17 02:22:55;;;;;;;13.55;5.07;;;;;;;6.92;100.00;102436.97;5120045;22;20061;-77
2023/05/17 02:25:21;;;;;;;15.77;5.68;;;;;;;6.92;100.00;102438.66;5113997;22;20057;-55
2023/05/17 02:27:46;;;;;;;12.70;5.55;;;;;;;6.94;100.00;102432.78;5024744;23;1179269;-55
2023/05/17 02:30:12;;;;;;;11.43;5.25;;;;;;;6.96;100.00;102438.06;5042189;23;20076;-77
2023/05/17 02:32:38;;;;;;;15.65;6.32;;;;;;;7.00;100.00;102426.19;5062506;22;20540;-55
2023/05/17 02:35:04;;;;;;;14.80;5.65;;;;;;;7.01;100.00;102430.56;5069442;22;20073;-77
2023/05/17 02:37:29;;;;;;;14.75;5.85;;;;;;;7.00;100.00;102431.38;5115298;23;20058;-77
2023/05/17 02:39:54;;;;;;;14.68;5.70;;;;;;;6.98;100.00;102441.66;5052733;22;20490;-77
2023/05/17 02:42:20;;;;;;;15.38;5.88;;;;;;;6.99;100.00;102450.31;5120070;23;20064;-55
2023/05/17 02:44:47;;;;;;;14.40;5.95;;;;;;;6.96;100.00;102448.41;5053521;22;20053;-55
2023/05/17 02:47:12;;;;;;;13.30;5.75;;;;;;;6.97;100.00;102458.00;5058926;23;20061;-47
2023/05/17 02:49:37;;;;;;;13.27;5.82;;;;;;;7.01;100.00;102454.81;5074060;22;20029;-48
2023/05/17 02:52:03;;;;;;;12.60;5.82;;;;;;;7.03;100.00;102449.72;4964483;23;20068;-54
2023/05/17 02:54:28;;;;;;;15.05;6.05;;;;;;;7.04;100.00;102460.19;5056228;22;20512;-77
2023/05/17 02:56:53;;;;;;;13.93;5.95;;;;;;;7.05;100.00;102449.00;5200749;23;20084;-55
2023/05/17 02:59:19;;;;;;;13.52;5.88;;;;;;;7.09;100.00;102455.28;5070092;22;20117;-51
2023/05/17 03:01:44;;;;;;;14.50;6.07;;;;;;;7.14;100.00;102457.38;5121626;23;20502;-76
2023/05/17 03:04:09;;;;;;;16.20;6.65;;;;;;;7.18;100.00;102458.44;5058465;23;20139;-54
2023/05/17 03:06:36;;;;;;;19.13;6.60;;;;;;;7.23;100.00;102466.53;5014030;23;20057;-77
2023/05/17 03:09:02;;;;;;;16.17;6.60;;;;;;;7.25;100.00;102467.53;5146393;22;20061;-77
2023/05/17 03:11:27;;;;;;;16.10;6.35;;;;;;;7.28;100.00;102466.00;5092080;22;20056;-77
2023/05/17 03:13:52;;;;;;;16.45;6.85;;;;;;;7.30;100.00;102469.63;5024542;23;20598;-55
2023/05/17 03:16:17;;;;;;;14.75;6.30;;;;;;;7.34;100.00;102459.44;5030649;22;20028;-75
2023/05/17 03:18:43;;;;;;;14.57;6.25;;;;;;;7.38;100.00;102470.09;5068245;23;20053;-76
2023/05/17 03:21:08;;;;;;;15.75;6.70;;;;;;;7.40;100.00;102471.09;5023333;28;20041;-76
2023/05/17 03:23:34;;;;;;;17.27;6.57;;;;;;;7.42;100.00;102473.78;5031074;22;20117;-53
2023/05/17 03:25:59;;;;;;;20.27;6.95;;;;;;;7.44;100.00;102475.69;5079155;23;20087;-55
2023/05/17 03:28:24;;;;;;;16.38;6.43;;;;;;;7.46;100.00;102481.84;5032561;28;20040;-55
2023/05/17 03:30:50;;;;;;;17.40;7.00;;;;;;;7.49;100.00;102479.44;5040113;23;20176;-77
2023/05/17 03:33:15;;;;;;;18.58;6.28;;;;;;;7.52;100.00;102488.19;5058998;23;20126;-55
2023/05/17 03:38:11;;;;;;;19.02;6.82;;;;;;;7.57;100.00;102479.03;5123442;22;20732;-48
2023/05/17 03:40:36;;;;;;;19.95;6.93;;;;;;;7.61;100.00;102481.00;5104652;22;20072;-51
2023/05/17 03:45:27;;;;;;;15.55;6.72;;;;;;;7.65;100.00;102498.56;5073291;22;20065;-77
2023/05/17 03:47:52;;;;;;;19.50;6.68;;;;;;;7.67;100.00;102486.56;5146720;22;20112;-76
2023/05/17 03:50:18;;;;;;;18.50;6.68;;;;;;;7.68;100.00;102484.91;5050725;23;20538;-55
2023/05/17 03:52:44;;;;;;;16.15;7.22;;;;;;;7.69;100.00;102491.84;4986676;22;20254;-54
2023/05/17 03:55:10;;;;;;;17.60;6.80;;;;;;;7.68;100.00;102495.28;5085001;22;20059;-54
2023/05/17 03:57:35;;;;;;;23.42;7.53;;;;;;;7.68;100.00;102496.16;5283121;22;20172;-48
2023/05/17 04:02:30;;;;;;;17.27;6.68;;;;;;;7.62;100.00;102494.06;5206216;23;20045;-55
2023/05/17 04:04:55;;;;;;;30.92;12.60;;;;;;;7.59;100.00;102501.66;5030080;28;20440;-56
2023/05/17 04:07:21;;;;;;;21.00;7.00;;;;;;;7.59;100.00;102504.25;5032964;28;20658;-52
2023/05/17 04:09:46;;;;;;;22.08;9.43;;;;;;;7.56;100.00;102498.88;5081429;22;20037;-77
2023/05/17 04:14:41;;;;;;;18.15;6.55;;;;;;;7.54;100.00;102499.59;5082864;23;20114;-76
2023/05/17 04:17:06;;;;;;;20.50;7.05;;;;;;;7.52;100.00;102502.09;5061368;23;20061;-76
2023/05/17 04:19:32;;;;;;;19.35;7.30;;;;;;;7.49;100.00;102509.69;5023521;22;20416;-55
2023/05/17 04:21:58;;;;;;;17.50;6.47;;;;;;;7.48;100.00;102508.75;5056504;22;20132;-77
2023/05/17 04:24:23;;;;;;;20.55;7.03;;;;;;;7.49;100.00;102507.97;5026926;22;20065;-48
2023/05/17 04:26:48;;;;;;;19.02;6.68;;;;;;;7.51;100.00;102520.16;5009441;28;20501;-47
2023/05/17 04:31:45;;;;;;;15.75;6.10;;;;;;;7.49;100.00;102518.34;5051577;22;20463;-55
2023/05/17 04:36:46;;;;;;;15.80;6.80;;;;;;;7.51;100.00;102526.22;5093752;22;20075;-77
2023/05/17 04:39:11;;;;;;;18.58;6.95;;;;;;;7.51;100.00;102526.22;5034083;28;20090;-77
2023/05/17 04:41:36;;;;;;;18.38;6.70;;;;;;;7.53;100.00;102528.91;5034169;28;20492;-76
2023/05/17 04:44:02;;;;;;;18.88;7.18;;;;;;;7.54;100.00;102530.72;5120046;22;20241;-71
2023/05/17 04:49:02;;;;;;;19.77;7.65;;;;;;;7.58;100.00;102541.38;5032067;23;20029;-76
2023/05/17 04:51:29;;;;;;;17.63;7.57;;;;;;;7.60;100.00;102544.06;4927292;22;20060;-55
2023/05/17 04:53:54;;;;;;;18.77;7.70;;;;;;;7.63;100.00;102552.03;5018833;22;20053;-77
2023/05/17 04:56:20;;;;;;;19.55;7.30;;;;;;;7.66;100.00;102547.03;5045152;22;20118;-77
2023/05/17 04:58:45;;;;;;;20.52;7.90;;;;;;;7.70;100.00;102545.53;5191968;23;20193;-55
2023/05/17 05:01:10;;;;;;;19.42;8.88;;;;;;;7.74;100.00;102556.19;5045491;22;20319;-55
2023/05/17 05:03:36;;;;;;;18.80;7.82;;;;;;;7.77;100.00;102558.09;5057898;23;20072;-76
2023/05/17 05:06:02;;;;;;;22.23;8.48;;;;;;;7.77;100.00;102564.19;5144507;23;20103;-55
2023/05/17 05:08:28;;;;;;;16.63;8.43;;;;;;;7.81;100.00;102562.69;5271823;22;20288;-54
2023/05/17 05:10:53;;;;;;;25.77;9.68;;;;;;;7.82;100.00;102570.56;4883563;22;20229;-76
2023/05/17 05:13:19;;;;;;;20.15;8.60;;;;;;;7.83;100.00;102562.00;5054962;23;20053;-56
2023/05/17 05:15:44;;;;;;;19.17;8.63;;;;;;;7.89;100.00;102570.94;5031696;28;20037;-55
2023/05/17 05:18:09;;;;;;;24.90;8.77;;;;;;;7.96;100.00;102574.00;5074593;22;20155;-76
2023/05/17 05:25:39;;;;;;;18.88;8.77;;;;;;;8.25;100.00;102584.41;5077717;22;20160;-59
2023/05/17 05:28:04;;;;;;;21.83;9.25;;;;;;;8.29;100.00;102589.88;5078604;22;20053;-77
2023/05/17 05:30:31;;;;;;;22.35;7.93;;;;;;;8.34;100.00;102592.75;5054388;23;20052;-59
2023/05/17 05:35:28;;;;;;;20.23;7.68;;;;;;;8.42;100.00;102599.31;5071897;22;20095;-59
2023/05/17 05:40:23;;;;;;;22.33;7.53;;;;;;;8.55;100.00;102594.91;5119336;22;20575;-77
2023/05/17 05:42:48;;;;;;;19.02;7.60;;;;;;;8.60;100.00;102590.88;5222312;22;20777;-77
2023/05/17 05:45:14;;;;;;;24.52;7.18;;;;;;;8.65;100.00;102595.53;5156264;23;20160;-59
2023/05/17 05:50:14;;;;;;;21.33;7.32;;;;;;;8.73;100.00;102603.78;4938665;26;20564;-77
2023/05/17 05:52:40;;;;;;;17.40;7.30;;;;;;;8.77;100.00;102597.97;5057859;22;20433;-59
2023/05/17 05:55:06;;;;;;;19.73;6.82;;;;;;;8.81;100.00;102601.66;5027668;22;20121;-77
2023/05/17 05:57:31;;;;;;;16.52;6.40;;;;;;;8.85;100.00;102598.44;5135380;23;20049;-60
2023/05/17 05:59:56;;;;;;;20.85;6.78;;;;;;;8.91;100.00;102604.00;5026497;28;20136;-59
2023/05/17 06:02:21;;;;;;;18.23;6.28;;;;;;;8.97;100.00;102616.44;5055146;23;20033;-77
2023/05/17 06:04:47;;;;;;;17.65;6.65;;;;;;;9.01;100.00;102614.13;5061009;23;20115;-62
2023/05/17 06:12:16;;;;;;;15.52;6.03;;;;;;;9.21;100.00;102625.69;5087338;22;20052;-60
2023/05/17 06:14:42;;;;;;;18.90;5.82;;;;;;;9.27;100.00;102630.34;5035063;23;20041;-77
2023/05/17 06:17:07;;;;;;;19.05;5.90;;;;;;;9.35;100.00;102626.47;5028024;28;20028;-77
2023/05/17 06:19:32;;;;;;;17.20;4.82;;;;;;;9.41;100.00;102628.50;5055445;23;20053;-63
2023/05/17 06:21:58;;;;;;;17.02;5.00;;;;;;;9.47;100.00;102634.09;5062645;22;20087;-77
2023/05/17 06:24:48;;;;;;;18.02;5.18;;;;;;;9.53;100.00;102638.72;5213826;22;20061;31
2023/05/17 06:27:14;;;;;;;18.13;5.15;;;;;;;9.58;100.00;102643.38;5153893;22;20049;-60
2023/05/17 06:32:12;;;;;;;19.20;5.00;;;;;;;9.75;99.80;102644.34;5132663;22;20057;-60
2023/05/17 06:34:38;;;;;;;13.05;4.15;;;;;;;9.81;98.34;102646.38;5163672;23;20217;-61
2023/05/17 06:37:04;;;;;;;18.70;4.43;;;;;;;9.87;95.75;102646.72;5081499;22;20057;-63
2023/05/17 06:39:29;;;;;;;14.45;4.15;;;;;;;9.87;94.97;102651.03;5281523;22;20076;-71
2023/05/17 06:41:55;;;;;;;11.20;3.50;;;;;;;9.89;92.50;102649.41;5133998;22;20100;-70
2023/05/17 06:49:19;;;;;;;12.90;3.10;;;;;;;9.98;89.36;102656.84;5055811;22;20540;-70
2023/05/17 06:51:45;;;;;;;13.60;2.87;;;;;;;9.96;88.07;102658.47;4997903;22;119602;-78
2023/05/17 06:54:10;;;;;;;13.60;2.70;;;;;;;9.99;88.44;102658.63;5066264;22;20950;-77
2023/05/17 06:56:35;;;;;;;13.93;3.10;;;;;;;10.07;88.29;102654.75;5180088;23;20124;-63
2023/05/17 06:59:01;;;;;;;12.10;3.15;;;;;;;10.17;90.50;102651.84;5013747;28;20068;-63
2023/05/17 07:03:51;;;;;;;14.15;2.95;;;;;;;10.40;83.49;102653.13;4998183;22;20667;-77
2023/05/17 07:06:17;;;;;;;12.75;2.97;;;;;;;10.39;86.62;102660.84;5058068;23;20049;-63
2023/05/17 07:11:17;;;;;;;12.77;2.58;;;;;;;10.55;81.41;102658.22;4982861;23;20061;-77
2023/05/17 07:13:42;;;;;;;11.93;3.00;;;;;;;10.52;83.86;102668.50;5024523;28;20404;-77
2023/05/17 07:16:08;;;;;;;11.70;2.83;;;;;;;10.70;83.93;102660.78;5084509;23;20048;-60
2023/05/17 07:18:33;;;;;;;13.95;3.70;;;;;;;10.86;82.17;102666.75;5045285;28;20051;-61
2023/05/17 07:20:58;;;;;;;12.77;2.67;;;;;;;10.79;80.36;102668.19;5150889;22;20167;-77
2023/05/17 07:23:24;;;;;;;16.25;3.17;;;;;;;10.74;83.11;102672.25;5133680;23;20053;-77
2023/05/17 07:25:49;;;;;;;12.50;2.65;;;;;;;10.81;78.66;102674.34;5057084;23;20096;-60
2023/05/17 07:28:15;;;;;;;15.52;2.72;;;;;;;10.67;81.19;102677.94;5113602;22;20060;-71
2023/05/17 07:30:41;;;;;;;13.13;2.95;;;;;;;10.69;78.93;102673.69;5126193;23;20831;-77
2023/05/17 07:33:06;;;;;;;13.48;2.97;;;;;;;10.74;81.29;102687.88;5056630;23;20080;-64
2023/05/17 07:35:31;;;;;;;13.55;3.00;;;;;;;10.87;79.77;102685.09;5034524;28;20028;-64
2023/05/17 07:37:57;;;;;;;13.75;3.47;;;;;;;10.93;77.24;102690.66;5057048;23;20028;-71
2023/05/17 07:40:22;;;;;;;12.98;2.25;;;;;;;10.92;78.96;102694.06;5056645;23;20056;-61
2023/05/17 07:42:47;;;;;;;17.38;2.67;;;;;;;10.91;77.31;102694.88;5067712;23;20674;-77
2023/05/17 07:47:49;;;;;;;14.73;2.53;;;;;;;10.91;78.32;102689.66;5174476;22;20057;-77
2023/05/17 07:50:16;;;;;;;9.25;2.45;;;;;;;10.96;76.41;102696.03;5194581;22;20429;-77
2023/05/17 07:52:41;;;;;;;11.63;2.67;;;;;;;11.02;78.51;102695.44;5175413;22;20049;-75
2023/05/17 07:55:07;;;;;;;11.40;2.03;;;;;;;11.09;74.24;102692.34;5067233;22;20350;-64
2023/05/17 08:00:01;;;;;;;9.93;2.08;;;;;;;11.22;78.68;102700.78;5210555;22;20996;-81
2023/05/17 08:02:27;;;;;;;16.27;2.40;;;;;;;11.35;74.25;102697.06;5194918;22;20049;-60
2023/05/17 08:04:52;;;;;;;14.77;2.90;;;;;;;11.26;73.89;102702.72;5097831;22;20077;-77
2023/05/17 08:07:17;;;;;;;20.25;2.85;;;;;;;11.11;72.88;102703.75;5265802;23;20065;-64
2023/05/17 08:09:44;;;;;;;11.38;2.60;;;;;;;10.95;72.16;102704.66;4766680;22;20045;-77
2023/05/17 08:12:09;;;;;;;13.05;2.33;;;;;;;10.84;73.97;102707.53;5091920;23;21073;-74
2023/05/17 08:14:35;;;;;;;10.75;2.30;;;;;;;11.03;75.35;102704.16;5030969;28;20082;-77
2023/05/17 08:17:00;;;;;;;11.90;2.58;;;;;;;11.33;78.54;102702.22;5127560;22;20052;-77
2023/05/17 08:21:55;;;;;;;13.95;2.58;;;;;;;11.92;74.86;102705.06;5122095;23;20051;-77
2023/05/17 08:24:21;;;;;;;12.75;2.67;;;;;;;12.21;73.67;102709.13;5033782;23;20033;-63
2023/05/17 08:26:46;;;;;;;13.48;2.85;;;;;;;12.48;74.77;102705.97;5018573;28;20103;-64
2023/05/17 08:31:41;;;;;;;9.25;2.13;;;;;;;12.78;66.52;102710.81;4999314;28;20041;-61
2023/05/17 08:34:06;;;;;;;6.82;1.92;;;;;;;12.52;67.44;102708.81;5000889;28;20500;-61
2023/05/17 08:36:31;;;;;;;12.68;2.85;;;;;;;12.45;68.44;102713.69;5009682;23;20056;-77
2023/05/17 08:38:57;;;;;;;10.88;2.42;;;;;;;12.64;69.27;102705.88;5064702;22;20058;-77
2023/05/17 08:41:22;;;;;;;11.00;2.30;;;;;;;12.94;66.79;102715.00;5010762;28;20017;-77
2023/05/17 08:43:48;;;;;;;7.50;1.98;;;;;;;13.09;65.49;102714.78;5038550;23;20057;-61
2023/05/17 08:48:44;;;;;;;5.40;1.90;;;;;;;13.38;64.55;102709.09;5109467;22;20064;-96
2023/05/17 08:51:10;;;;;;;10.52;1.98;;;;;;;13.61;66.35;102709.16;5024762;28;20033;-96
2023/05/17 08:53:41;;;;;;;7.97;2.10;;;;;;;13.70;62.31;102706.94;5016034;28;20029;-96
2023/05/17 08:56:09;;;;;;;8.68;1.95;;;;;;;13.62;65.03;102708.31;5015308;28;21098;-95
2023/05/17 08:58:37;;;;;;;10.23;2.20;;;;;;;13.54;63.67;102709.72;5015783;28;20052;-96
2023/05/17 09:01:03;;;;;;;8.05;2.00;;;;;;;13.37;60.84;102706.44;5013344;28;20021;-95
2023/05/17 09:03:35;;;;;;;9.23;2.47;;;;;;;13.39;64.11;102700.41;5016914;28;20421;-96
2023/05/17 09:06:02;;;;;;;9.43;2.45;;;;;;;13.44;63.75;102707.56;5015783;28;20032;-96
2023/05/17 09:08:31;;;;;;;9.77;2.28;;;;;;;13.16;62.20;102708.97;5019612;28;20597;-96
2023/05/17 09:11:06;;;;;;;11.05;2.10;;;;;;;12.87;63.04;102716.44;5018833;28;20025;-96
2023/05/17 09:13:32;;;;;;;8.32;1.95;;;;;;;12.60;62.63;102716.09;5018294;28;20021;-96
2023/05/17 09:16:02;;;;;;;9.27;1.88;;;;;;;12.36;65.15;102716.78;5015951;28;20025;-96
2023/05/17 09:18:34;;;;;;;8.27;2.38;;;;;;;12.52;66.69;102705.31;5013394;28;20033;-96
2023/05/17 09:21:08;;;;;;;9.63;2.00;;;;;;;12.58;63.98;102715.16;5011356;28;20061;-96
2023/05/17 09:23:37;;;;;;;9.50;2.10;;;;;;;12.71;66.54;102707.03;5015839;28;20160;-95
2023/05/17 09:26:21;;;;;;;11.17;2.87;;;;;;;13.18;67.52;102704.72;5021411;28;20029;-96
2023/05/17 09:29:23;;;;;;;10.57;2.72;;;;;;;13.78;63.97;102703.72;5019348;28;20296;-96
2023/05/17 09:31:49;;;;;;;12.93;2.67;;;;;;;14.03;60.17;102710.81;5107494;22;20188;-77
2023/05/17 09:36:42;;;;;;;8.10;1.90;;;;;;;13.63;61.66;102709.22;5055359;22;20061;-69
2023/05/17 09:39:13;;;;;;;10.80;1.98;;;;;;;13.46;60.06;102716.41;5057887;23;20050;-62
2023/05/17 09:41:45;;;;;;;8.18;2.10;;;;;;;13.69;62.75;102710.38;5058812;23;20041;-76
2023/05/17 09:44:12;;;;;;;9.93;2.17;;;;;;;13.94;61.18;102706.13;5075330;22;20046;-76
2023/05/17 09:46:57;;;;;;;11.48;2.25;;;;;;;14.21;63.32;102705.41;5108306;22;20052;-63
2023/05/17 09:49:26;;;;;;;8.77;2.10;;;;;;;14.31;62.83;102707.56;5080461;23;20049;-63
2023/05/17 09:51:51;;;;;;;8.70;2.35;;;;;;;14.29;58.33;102701.34;5096457;22;20414;-61
2023/05/17 09:54:17;;;;;;;7.35;2.00;;;;;;;14.08;59.14;102706.66;5059112;22;20049;-77
2023/05/17 09:56:42;;;;;;;7.30;2.08;;;;;;;14.08;60.45;102704.06;5123877;22;20053;-61
2023/05/17 10:04:12;;;;;;;8.68;2.05;;;;;;;14.81;57.09;102707.66;4809275;22;20393;-77
2023/05/17 10:06:43;;;;;;;7.00;2.15;;;;;;;14.83;59.60;102710.34;5064181;23;20042;-96
2023/05/17 10:09:12;;;;;;;8.23;2.30;;;;;;;14.94;58.09;102702.00;5032387;28;20087;-96
2023/05/17 10:11:47;;;;;;;6.63;2.22;;;;;;;15.10;59.67;102713.06;5032350;28;20065;-96
2023/05/17 10:14:17;;;;;;;6.72;2.35;;;;;;;15.11;57.72;102709.59;5050190;28;20025;-96
2023/05/17 10:16:49;;;;;;;7.35;2.15;;;;;;;15.21;57.08;102705.56;5038218;28;20558;-96
2023/05/17 10:19:18;;;;;;;8.65;2.08;;;;;;;15.28;57.43;102710.19;5028431;28;20025;-96
2023/05/17 10:21:53;;;;;;;7.77;2.30;;;;;;;15.12;59.35;102712.28;5032944;28;20104;-96
2023/05/17 10:24:26;;;;;;;9.32;2.10;;;;;;;15.17;57.80;102719.44;5031002;28;20033;-96
2023/05/17 10:26:53;;;;;;;8.98;2.22;;;;;;;15.23;55.96;102709.13;5031913;28;20051;-95
2023/05/17 10:29:25;;;;;;;7.00;2.20;;;;;;;15.58;56.60;102698.91;5028935;28;20032;-96
2023/05/17 10:31:54;;;;;;;11.75;2.28;;;;;;;15.71;55.93;102703.72;5030254;28;20025;-95
2023/05/17 10:34:19;;;;;;;8.30;1.95;;;;;;;15.69;52.71;102699.28;5031591;28;20041;-96
2023/05/17 10:36:47;;;;;;;9.23;2.38;;;;;;;15.78;58.68;102700.47;5029715;28;20151;-96
2023/05/17 10:39:23;;;;;;;7.22;2.00;;;;;;;15.85;56.98;102695.44;5049083;28;20033;-96
2023/05/17 10:41:51;;;;;;;10.85;2.33;;;;;;;15.82;57.93;102697.09;5034289;28;20024;-96
2023/05/17 10:44:17;;;;;;;8.02;2.03;;;;;;;15.86;52.37;102700.72;5033306;28;20105;-96
2023/05/17 10:46:59;;;;;;;6.97;1.80;;;;;;;15.46;56.10;102700.28;5027042;28;20405;-96
2023/05/17 10:49:32;;;;;;;6.88;2.10;;;;;;;15.58;57.88;102688.41;5029949;28;20029;-96
2023/05/17 10:51:58;;;;;;;6.90;1.92;;;;;;;15.92;58.89;102698.28;5026859;28;20026;-96
2023/05/17 10:54:41;;;;;;;6.45;1.90;;;;;;;16.21;56.52;102684.25;5028458;28;20036;-96
2023/05/17 10:57:15;;;;;;;9.18;2.10;;;;;;;16.45;55.99;102690.25;5034895;28;20107;-95
2023/05/17 10:59:58;;;;;;;8.80;2.05;;;;;;;16.85;56.60;102679.94;5025826;28;20018;-96
2023/05/17 11:02:38;;;;;;;7.55;2.15;;;;;;;17.00;53.45;102677.75;5026046;28;20541;-96
2023/05/17 11:05:04;;;;;;;8.15;1.98;;;;;;;17.09;54.13;102674.47;5032378;28;20024;-96
2023/05/17 11:07:36;;;;;;;8.48;2.08;;;;;;;17.02;49.21;102673.41;5035024;28;20024;-96
2023/05/17 11:12:56;;;;;;;7.15;2.60;;;;;;;17.07;48.55;102672.63;5038675;28;20033;-96
2023/05/17 11:15:37;;;;;;;9.07;2.58;;;;;;;16.98;51.79;102675.91;5037847;28;20009;-96
2023/05/17 11:18:06;;;;;;;7.85;2.08;;;;;;;17.05;52.95;102677.88;5047691;28;20025;-96
2023/05/17 11:20:35;;;;;;;9.48;2.17;;;;;;;17.13;48.77;102681.59;5062493;28;20029;-96
2023/05/17 11:23:05;;;;;;;6.28;1.95;;;;;;;17.18;50.84;102666.78;5043828;28;20025;-96
2023/05/17 11:25:34;;;;;;;6.40;1.70;;;;;;;17.37;49.97;102667.25;5044351;28;20036;-96
2023/05/17 11:28:14;;;;;;;8.93;2.20;;;;;;;17.53;50.74;102677.31;5044038;28;20036;-96
2023/05/17 11:30:46;;;;;;;6.80;2.42;;;;;;;17.70;51.91;102668.94;5041480;28;20037;-96
2023/05/17 11:33:12;;;;;;;6.43;1.80;;;;;;;17.65;42.47;102665.28;5066385;28;20049;-96
2023/05/17 11:35:38;;;;;;;9.27;2.08;;;;;;;17.41;48.92;102670.84;5030352;28;20440;-95
2023/05/17 11:38:20;;;;;;;6.90;2.20;;;;;;;17.39;51.83;102668.16;5031155;28;20064;-96
2023/05/17 11:40:52;;;;;;;7.32;2.40;;;;;;;17.31;50.25;102675.03;5032002;28;20059;-96
2023/05/17 11:45:49;;;;;;;9.25;2.15;;;;;;;17.27;49.45;102663.50;5055468;22;20056;-82
2023/05/17 11:48:17;;;;;;;7.88;1.98;;;;;;;17.23;54.11;102671.28;5082522;22;20058;-82
2023/05/17 11:50:44;;;;;;;8.20;1.90;;;;;;;17.18;51.50;102669.41;5206890;23;20189;-82
2023/05/17 11:53:11;;;;;;;8.88;2.22;;;;;;;17.37;49.65;102675.16;5179747;22;20463;-81
2023/05/17 11:58:13;;;;;;;7.82;2.10;;;;;;;17.71;49.38;102668.97;5137107;22;20087;-81
2023/05/17 12:00:40;;;;;;;5.70;1.67;;;;;;;17.77;45.79;102668.22;5046443;28;20029;-81
2023/05/17 12:05:51;;;;;;;6.72;1.60;;;;;;;17.77;45.37;102665.59;5067959;22;20211;-82
2023/05/17 12:08:18;;;;;;;15.52;3.53;;;;;;;17.88;48.38;102664.06;5066881;22;20156;-64
2023/05/17 12:10:50;;;;;;;11.13;2.42;;;;;;;18.15;46.63;102662.94;5107811;23;20067;-64
2023/05/17 12:13:17;;;;;;;6.57;1.65;;;;;;;18.10;45.61;102661.91;5015129;28;20048;-64
2023/05/17 12:20:56;;;;;;;6.97;2.22;;;;;;;17.81;47.64;102663.88;5145627;23;20053;-64
2023/05/17 12:26:21;;;;;;;7.35;2.00;;;;;;;17.81;45.42;102654.22;5054732;22;20045;-80
2023/05/17 12:28:59;;;;;;;7.82;2.10;;;;;;;17.55;47.00;102662.44;5127494;22;20053;-96
2023/05/17 12:31:52;;;;;;;5.90;1.88;;;;;;;17.46;49.78;102658.69;5010761;28;20069;-96
2023/05/17 12:37:39;;;;;;;;;;;;;;;;;;;;;
2023/05/17 12:40:26;;;;;;;6.80;1.90;;;;;;;18.23;49.32;102661.34;5026512;28;20032;-96
2023/05/17 12:43:09;;;;;;;10.73;2.35;;;;;;;18.34;47.47;102665.97;5012014;28;20041;-96
2023/05/17 12:45:35;;;;;;;8.13;1.90;;;;;;;18.43;46.79;102655.56;5020875;28;20029;-95
2023/05/17 12:48:22;;;;;;;5.97;1.75;;;;;;;18.70;47.62;102663.16;5028575;28;20081;-96
2023/05/17 12:53:37;;;;;;;5.43;1.70;;;;;;;19.27;47.49;102650.09;5073242;23;20028;-63
2023/05/17 12:56:03;;;;;;;5.15;1.90;;;;;;;19.41;40.34;102664.41;5214394;22;20029;-80
2023/05/17 12:58:28;;;;;;;6.70;1.90;;;;;;;19.18;41.81;102660.53;5047142;23;20852;-80
2023/05/17 13:01:05;;;;;;;5.00;1.85;;;;;;;18.81;47.16;102671.25;5116686;22;20226;-63
2023/05/17 13:03:49;;;;;;;5.97;1.90;;;;;;;18.70;40.09;102664.91;5075814;22;20052;-81
2023/05/17 13:06:15;;;;;;;6.22;1.50;;;;;;;18.58;44.69;102660.25;5042731;22;20053;-61
2023/05/17 13:11:12;;;;;;;6.22;2.03;;;;;;;18.84;44.08;102666.06;5127617;22;20281;-80
2023/05/17 13:13:37;;;;;;;4.90;1.45;;;;;;;18.71;41.70;102649.09;5021061;28;20033;-81
2023/05/17 13:16:03;;;;;;;4.72;1.55;;;;;;;18.53;41.04;102664.56;5061158;23;20089;-61
2023/05/17 13:18:29;;;;;;;5.03;1.60;;;;;;;18.45;44.75;102656.50;5079641;22;20055;-63
2023/05/17 13:21:07;;;;;;;5.50;1.77;;;;;;;18.71;43.67;102648.19;5104872;22;21042;-60
2023/05/17 13:23:32;;;;;;;8.15;1.80;;;;;;;18.85;42.43;102648.44;5051913;23;20064;-81
2023/05/17 13:25:57;;;;;;;4.72;1.70;;;;;;;18.98;45.69;102641.69;5024690;28;20033;-80
2023/05/17 13:28:23;;;;;;;5.57;1.70;;;;;;;19.08;41.77;102638.31;5068790;22;20060;-60
2023/05/17 13:30:50;;;;;;;6.60;1.63;;;;;;;19.00;41.62;102643.47;5060220;23;20475;-81
2023/05/17 13:33:16;;;;;;;5.90;1.70;;;;;;;19.00;39.83;102653.16;5046596;22;20149;-96
2023/05/17 13:35:44;;;;;;;6.47;1.80;;;;;;;18.91;40.78;102648.59;5015334;28;20021;-96